sensor_id;sensor_type;location;lat;lon;timestamp;temperature;humidity
12815;DHT22;6472;52.328;13.070;2023-05-31T00:01:07;9.20;99.90
12815;DHT22;6472;52.328;13.070;2023-05-31T00:03:37;9.20;99.90
12815;DHT22;6472;52.328;13.070;2023-05-31T00:06:08;9.20;99.90
12815;DHT22;6472;52.328;13.070;2023-05-31T00:08:36;9.10;99.90
12815;DHT22;6472;52.328;13.070;2023-05-31T00:11:06;9.10;99.90
12815;DHT22;6472;52.328;13.070;2023-05-31T00:13:34;9.00;99.90
12815;DHT22;6472;52.328;13.070;2023-05-31T00:16:02;9.00;99.90
12815;DHT22;6472;52.328;13.070;2023-05-31T00:18:32;9.00;99.90
12815;DHT22;6472;52.328;13.070;2023-05-31T00:21:02;8.90;99.90
12815;DHT22;6472;52.328;13.070;2023-05-31T00:23:30;8.90;99.90
12815;DHT22;6472;52.328;13.070;2023-05-31T00:25:58;8.90;99.90
12815;DHT22;6472;52.328;13.070;2023-05-31T00:28:26;8.80;99.90
12815;DHT22;6472;52.328;13.070;2023-05-31T00:30:54;8.80;99.90
12815;DHT22;6472;52.328;13.070;2023-05-31T00:33:22;8.80;99.90
12815;DHT22;6472;52.328;13.070;2023-05-31T00:35:50;8.70;99.90
12815;DHT22;6472;52.328;13.070;2023-05-31T00:38:20;8.70;99.90
12815;DHT22;6472;52.328;13.070;2023-05-31T00:40:48;8.60;99.90
12815;DHT22;6472;52.328;13.070;2023-05-31T00:43:16;8.60;99.90
12815;DHT22;6472;52.328;13.070;2023-05-31T00:45:44;8.60;99.90
12815;DHT22;6472;52.328;13.070;2023-05-31T00:48:12;8.60;99.90
12815;DHT22;6472;52.328;13.070;2023-05-31T00:50:41;8.50;99.90
12815;DHT22;6472;52.328;13.070;2023-05-31T00:53:09;8.50;99.90
12815;DHT22;6472;52.328;13.070;2023-05-31T00:55:38;8.50;99.90
12815;DHT22;6472;52.328;13.070;2023-05-31T00:58:06;8.50;99.90
12815;DHT22;6472;52.328;13.070;2023-05-31T01:00:34;8.50;99.90
12815;DHT22;6472;52.328;13.070;2023-05-31T01:03:03;8.50;99.90
12815;DHT22;6472;52.328;13.070;2023-05-31T01:05:31;8.50;99.90
12815;DHT22;6472;52.328;13.070;2023-05-31T01:07:59;8.50;99.90
12815;DHT22;6472;52.328;13.070;2023-05-31T01:10:28;8.50;99.90
12815;DHT22;6472;52.328;13.070;2023-05-31T01:13:05;8.40;99.90
12815;DHT22;6472;52.328;13.070;2023-05-31T01:15:38;8.30;99.90
12815;DHT22;6472;52.328;13.070;2023-05-31T01:18:14;8.30;99.90
12815;DHT22;6472;52.328;13.070;2023-05-31T01:20:48;8.20;99.90
12815;DHT22;6472;52.328;13.070;2023-05-31T01:23:33;8.20;99.90
12815;DHT22;6472;52.328;13.070;2023-05-31T01:26:34;8.10;99.90
12815;DHT22;6472;52.328;13.070;2023-05-31T01:29:07;8.00;99.90
12815;DHT22;6472;52.328;13.070;2023-05-31T01:31:36;8.00;99.90
12815;DHT22;6472;52.328;13.070;2023-05-31T01:34:05;7.90;99.90
12815;DHT22;6472;52.328;13.070;2023-05-31T01:36:34;7.80;99.90
12815;DHT22;6472;52.328;13.070;2023-05-31T01:39:02;7.80;99.90
12815;DHT22;6472;52.328;13.070;2023-05-31T01:41:35;7.70;99.90
12815;DHT22;6472;52.328;13.070;2023-05-31T01:44:04;7.70;99.90
12815;DHT22;6472;52.328;13.070;2023-05-31T01:46:33;7.60;99.90
12815;DHT22;6472;52.328;13.070;2023-05-31T01:49:01;7.60;99.90
12815;DHT22;6472;52.328;13.070;2023-05-31T01:51:30;7.60;99.90
12815;DHT22;6472;52.328;13.070;2023-05-31T01:54:00;7.50;99.90
12815;DHT22;6472;52.328;13.070;2023-05-31T01:56:30;7.50;99.90
12815;DHT22;6472;52.328;13.070;2023-05-31T01:59:00;7.50;99.90
12815;DHT22;6472;52.328;13.070;2023-05-31T02:01:30;7.50;99.90
12815;DHT22;6472;52.328;13.070;2023-05-31T02:03:58;7.50;99.90
12815;DHT22;6472;52.328;13.070;2023-05-31T02:06:26;7.40;99.90
12815;DHT22;6472;52.328;13.070;2023-05-31T02:08:54;7.40;99.90
12815;DHT22;6472;52.328;13.070;2023-05-31T02:11:22;7.40;99.90
12815;DHT22;6472;52.328;13.070;2023-05-31T02:13:52;7.30;99.90
12815;DHT22;6472;52.328;13.070;2023-05-31T02:16:21;7.30;99.90
12815;DHT22;6472;52.328;13.070;2023-05-31T02:18:49;7.20;99.90
12815;DHT22;6472;52.328;13.070;2023-05-31T02:21:18;7.20;99.90
12815;DHT22;6472;52.328;13.070;2023-05-31T02:23:46;7.10;99.90
12815;DHT22;6472;52.328;13.070;2023-05-31T02:26:15;7.00;99.90
12815;DHT22;6472;52.328;13.070;2023-05-31T02:28:43;7.00;99.90
12815;DHT22;6472;52.328;13.070;2023-05-31T02:31:11;7.00;99.90
12815;DHT22;6472;52.328;13.070;2023-05-31T02:33:41;7.00;99.90
12815;DHT22;6472;52.328;13.070;2023-05-31T02:36:10;6.90;99.90
12815;DHT22;6472;52.328;13.070;2023-05-31T02:38:38;6.90;99.90
12815;DHT22;6472;52.328;13.070;2023-05-31T02:41:06;6.80;99.90
12815;DHT22;6472;52.328;13.070;2023-05-31T02:43:34;6.80;99.90
12815;DHT22;6472;52.328;13.070;2023-05-31T02:46:02;6.70;99.90
12815;DHT22;6472;52.328;13.070;2023-05-31T02:48:30;6.70;99.90
12815;DHT22;6472;52.328;13.070;2023-05-31T02:51:00;6.70;99.90
12815;DHT22;6472;52.328;13.070;2023-05-31T02:53:28;6.70;99.90
12815;DHT22;6472;52.328;13.070;2023-05-31T02:55:57;6.60;99.90
12815;DHT22;6472;52.328;13.070;2023-05-31T02:58:25;6.60;99.90
12815;DHT22;6472;52.328;13.070;2023-05-31T03:00:53;6.60;99.90
12815;DHT22;6472;52.328;13.070;2023-05-31T03:03:21;6.60;99.90
12815;DHT22;6472;52.328;13.070;2023-05-31T03:05:49;6.60;99.90
12815;DHT22;6472;52.328;13.070;2023-05-31T03:08:19;6.60;99.90
12815;DHT22;6472;52.328;13.070;2023-05-31T03:10:47;6.60;99.90
12815;DHT22;6472;52.328;13.070;2023-05-31T03:13:15;6.50;99.90
12815;DHT22;6472;52.328;13.070;2023-05-31T03:15:44;6.50;99.90
12815;DHT22;6472;52.328;13.070;2023-05-31T03:18:12;6.50;99.90
12815;DHT22;6472;52.328;13.070;2023-05-31T03:20:40;6.50;99.90
12815;DHT22;6472;52.328;13.070;2023-05-31T03:23:08;6.50;99.90
12815;DHT22;6472;52.328;13.070;2023-05-31T03:25:37;6.50;99.90
12815;DHT22;6472;52.328;13.070;2023-05-31T03:28:05;6.60;99.90
12815;DHT22;6472;52.328;13.070;2023-05-31T03:30:33;6.60;99.90
12815;DHT22;6472;52.328;13.070;2023-05-31T03:33:01;6.60;99.90
12815;DHT22;6472;52.328;13.070;2023-05-31T03:35:30;6.60;99.90
12815;DHT22;6472;52.328;13.070;2023-05-31T03:37:58;6.60;99.90
12815;DHT22;6472;52.328;13.070;2023-05-31T03:40:26;6.60;99.90
12815;DHT22;6472;52.328;13.070;2023-05-31T03:42:55;6.60;99.90
12815;DHT22;6472;52.328;13.070;2023-05-31T03:45:23;6.70;99.90
12815;DHT22;6472;52.328;13.070;2023-05-31T03:47:52;6.70;99.90
12815;DHT22;6472;52.328;13.070;2023-05-31T03:50:20;6.70;99.90
12815;DHT22;6472;52.328;13.070;2023-05-31T03:52:48;6.70;99.90
12815;DHT22;6472;52.328;13.070;2023-05-31T03:55:16;6.80;99.90
12815;DHT22;6472;52.328;13.070;2023-05-31T03:57:44;6.90;99.90
12815;DHT22;6472;52.328;13.070;2023-05-31T04:00:14;6.90;99.90
12815;DHT22;6472;52.328;13.070;2023-05-31T04:02:42;6.90;99.90
12815;DHT22;6472;52.328;13.070;2023-05-31T04:05:21;7.00;99.90
12815;DHT22;6472;52.328;13.070;2023-05-31T04:07:49;7.10;99.90
12815;DHT22;6472;52.328;13.070;2023-05-31T04:10:17;7.30;99.90
12815;DHT22;6472;52.328;13.070;2023-05-31T04:12:45;7.50;99.90
12815;DHT22;6472;52.328;13.070;2023-05-31T04:15:15;7.50;99.90
12815;DHT22;6472;52.328;13.070;2023-05-31T04:17:43;7.60;99.90
12815;DHT22;6472;52.328;13.070;2023-05-31T04:20:12;7.70;99.90
12815;DHT22;6472;52.328;13.070;2023-05-31T04:22:40;7.90;99.90
12815;DHT22;6472;52.328;13.070;2023-05-31T04:25:09;8.00;99.90
12815;DHT22;6472;52.328;13.070;2023-05-31T04:27:39;8.20;99.90
12815;DHT22;6472;52.328;13.070;2023-05-31T04:30:08;8.30;99.90
12815;DHT22;6472;52.328;13.070;2023-05-31T04:32:37;8.50;99.90
12815;DHT22;6472;52.328;13.070;2023-05-31T04:35:07;8.70;99.90
12815;DHT22;6472;52.328;13.070;2023-05-31T04:37:35;8.90;99.90
12815;DHT22;6472;52.328;13.070;2023-05-31T04:40:05;9.10;99.90
12815;DHT22;6472;52.328;13.070;2023-05-31T04:42:36;9.30;99.90
12815;DHT22;6472;52.328;13.070;2023-05-31T04:45:06;9.50;99.90
12815;DHT22;6472;52.328;13.070;2023-05-31T04:47:34;9.70;99.90
12815;DHT22;6472;52.328;13.070;2023-05-31T04:50:04;10.00;99.90
12815;DHT22;6472;52.328;13.070;2023-05-31T04:52:32;10.20;99.90
12815;DHT22;6472;52.328;13.070;2023-05-31T04:55:00;10.40;99.90
12815;DHT22;6472;52.328;13.070;2023-05-31T04:57:28;10.60;99.90
12815;DHT22;6472;52.328;13.070;2023-05-31T04:59:59;10.80;99.90
12815;DHT22;6472;52.328;13.070;2023-05-31T05:02:27;11.00;99.90
12815;DHT22;6472;52.328;13.070;2023-05-31T05:04:56;11.30;99.90
12815;DHT22;6472;52.328;13.070;2023-05-31T05:07:25;11.60;99.90
12815;DHT22;6472;52.328;13.070;2023-05-31T05:09:53;11.90;99.90
12815;DHT22;6472;52.328;13.070;2023-05-31T05:12:21;12.20;99.90
12815;DHT22;6472;52.328;13.070;2023-05-31T05:14:49;12.60;99.90
12815;DHT22;6472;52.328;13.070;2023-05-31T05:17:17;12.90;99.90
12815;DHT22;6472;52.328;13.070;2023-05-31T05:19:45;13.30;99.90
12815;DHT22;6472;52.328;13.070;2023-05-31T05:22:13;13.50;99.90
12815;DHT22;6472;52.328;13.070;2023-05-31T05:24:42;13.70;99.90
12815;DHT22;6472;52.328;13.070;2023-05-31T05:27:10;14.10;99.90
12815;DHT22;6472;52.328;13.070;2023-05-31T05:29:38;14.40;99.90
12815;DHT22;6472;52.328;13.070;2023-05-31T05:32:07;14.60;99.90
12815;DHT22;6472;52.328;13.070;2023-05-31T05:34:35;14.90;99.90
12815;DHT22;6472;52.328;13.070;2023-05-31T05:37:03;15.40;99.90
12815;DHT22;6472;52.328;13.070;2023-05-31T05:39:32;15.70;99.90
12815;DHT22;6472;52.328;13.070;2023-05-31T05:42:01;15.80;99.90
12815;DHT22;6472;52.328;13.070;2023-05-31T05:44:30;16.10;99.90
12815;DHT22;6472;52.328;13.070;2023-05-31T05:46:58;16.30;99.90
12815;DHT22;6472;52.328;13.070;2023-05-31T05:49:26;16.30;99.90
12815;DHT22;6472;52.328;13.070;2023-05-31T05:51:54;16.30;99.90
12815;DHT22;6472;52.328;13.070;2023-05-31T05:54:22;16.20;99.90
12815;DHT22;6472;52.328;13.070;2023-05-31T05:56:50;16.40;99.90
12815;DHT22;6472;52.328;13.070;2023-05-31T05:59:19;16.50;99.90
12815;DHT22;6472;52.328;13.070;2023-05-31T06:01:48;16.40;99.90
12815;DHT22;6472;52.328;13.070;2023-05-31T06:04:17;16.60;99.90
12815;DHT22;6472;52.328;13.070;2023-05-31T06:06:45;16.70;99.90
12815;DHT22;6472;52.328;13.070;2023-05-31T06:09:13;16.90;99.90
12815;DHT22;6472;52.328;13.070;2023-05-31T06:11:41;17.20;99.90
12815;DHT22;6472;52.328;13.070;2023-05-31T06:14:09;17.40;99.90
12815;DHT22;6472;52.328;13.070;2023-05-31T06:16:38;17.60;99.90
12815;DHT22;6472;52.328;13.070;2023-05-31T06:19:06;17.50;99.10
12815;DHT22;6472;52.328;13.070;2023-05-31T06:21:35;17.50;99.70
12815;DHT22;6472;52.328;13.070;2023-05-31T06:24:03;17.60;99.90
12815;DHT22;6472;52.328;13.070;2023-05-31T06:26:31;17.50;96.70
12815;DHT22;6472;52.328;13.070;2023-05-31T06:29:02;17.50;97.90
12815;DHT22;6472;52.328;13.070;2023-05-31T06:31:30;17.60;97.00
12815;DHT22;6472;52.328;13.070;2023-05-31T06:34:00;17.80;95.20
12815;DHT22;6472;52.328;13.070;2023-05-31T06:36:29;17.80;96.00
12815;DHT22;6472;52.328;13.070;2023-05-31T06:38:58;17.90;98.00
12815;DHT22;6472;52.328;13.070;2023-05-31T06:41:26;18.00;95.60
12815;DHT22;6472;52.328;13.070;2023-05-31T06:43:56;18.30;94.10
12815;DHT22;6472;52.328;13.070;2023-05-31T06:46:24;18.60;95.80
12815;DHT22;6472;52.328;13.070;2023-05-31T06:48:52;18.90;95.00
12815;DHT22;6472;52.328;13.070;2023-05-31T06:51:31;19.10;94.90
12815;DHT22;6472;52.328;13.070;2023-05-31T06:54:00;19.20;92.20
12815;DHT22;6472;52.328;13.070;2023-05-31T06:56:28;19.20;91.70
12815;DHT22;6472;52.328;13.070;2023-05-31T06:58:56;19.20;93.40
12815;DHT22;6472;52.328;13.070;2023-05-31T07:01:24;19.40;92.30
12815;DHT22;6472;52.328;13.070;2023-05-31T07:03:53;19.40;91.00
12815;DHT22;6472;52.328;13.070;2023-05-31T07:06:22;19.60;93.90
12815;DHT22;6472;52.328;13.070;2023-05-31T07:08:52;19.80;90.20
12815;DHT22;6472;52.328;13.070;2023-05-31T07:11:20;19.70;88.90
12815;DHT22;6472;52.328;13.070;2023-05-31T07:13:48;19.90;92.70
12815;DHT22;6472;52.328;13.070;2023-05-31T07:16:16;20.10;90.80
12815;DHT22;6472;52.328;13.070;2023-05-31T07:18:45;20.20;91.40
12815;DHT22;6472;52.328;13.070;2023-05-31T07:21:14;20.20;87.90
12815;DHT22;6472;52.328;13.070;2023-05-31T07:23:42;20.30;89.60
12815;DHT22;6472;52.328;13.070;2023-05-31T07:26:11;20.70;89.90
12815;DHT22;6472;52.328;13.070;2023-05-31T07:28:40;20.80;90.40
12815;DHT22;6472;52.328;13.070;2023-05-31T07:31:08;20.90;87.80
12815;DHT22;6472;52.328;13.070;2023-05-31T07:33:36;21.00;90.40
12815;DHT22;6472;52.328;13.070;2023-05-31T07:36:05;21.20;87.20
12815;DHT22;6472;52.328;13.070;2023-05-31T07:38:33;21.30;85.70
12815;DHT22;6472;52.328;13.070;2023-05-31T07:41:02;20.90;84.30
12815;DHT22;6472;52.328;13.070;2023-05-31T07:43:31;21.10;87.90
12815;DHT22;6472;52.328;13.070;2023-05-31T07:46:01;20.80;81.50
12815;DHT22;6472;52.328;13.070;2023-05-31T07:48:29;20.80;84.70
12815;DHT22;6472;52.328;13.070;2023-05-31T07:50:59;20.80;82.40
12815;DHT22;6472;52.328;13.070;2023-05-31T07:53:27;20.70;73.40
12815;DHT22;6472;52.328;13.070;2023-05-31T07:55:55;20.50;78.00
12815;DHT22;6472;52.328;13.070;2023-05-31T07:58:23;20.40;77.70
12815;DHT22;6472;52.328;13.070;2023-05-31T08:00:53;20.50;79.30
12815;DHT22;6472;52.328;13.070;2023-05-31T08:03:21;20.70;76.00
12815;DHT22;6472;52.328;13.070;2023-05-31T08:05:49;20.70;76.70
12815;DHT22;6472;52.328;13.070;2023-05-31T08:08:21;20.80;74.00
12815;DHT22;6472;52.328;13.070;2023-05-31T08:10:49;21.20;77.70
12815;DHT22;6472;52.328;13.070;2023-05-31T08:13:17;21.60;75.30
12815;DHT22;6472;52.328;13.070;2023-05-31T08:15:44;21.60;73.80
12815;DHT22;6472;52.328;13.070;2023-05-31T08:18:14;21.80;81.50
12815;DHT22;6472;52.328;13.070;2023-05-31T08:20:42;21.80;69.00
12815;DHT22;6472;52.328;13.070;2023-05-31T08:23:16;21.70;70.80
12815;DHT22;6472;52.328;13.070;2023-05-31T08:25:44;22.20;70.40
12815;DHT22;6472;52.328;13.070;2023-05-31T08:28:12;22.40;63.70
12815;DHT22;6472;52.328;13.070;2023-05-31T08:30:40;22.30;64.40
12815;DHT22;6472;52.328;13.070;2023-05-31T08:33:11;22.30;62.20
12815;DHT22;6472;52.328;13.070;2023-05-31T08:35:41;22.30;60.00
12815;DHT22;6472;52.328;13.070;2023-05-31T08:38:09;22.40;61.00
12815;DHT22;6472;52.328;13.070;2023-05-31T08:40:37;22.40;58.90
12815;DHT22;6472;52.328;13.070;2023-05-31T08:43:06;22.20;58.40
12815;DHT22;6472;52.328;13.070;2023-05-31T08:45:43;22.30;59.90
12815;DHT22;6472;52.328;13.070;2023-05-31T08:48:14;22.20;56.60
12815;DHT22;6472;52.328;13.070;2023-05-31T08:50:47;22.10;58.60
12815;DHT22;6472;52.328;13.070;2023-05-31T08:53:20;22.10;58.10
12815;DHT22;6472;52.328;13.070;2023-05-31T08:55:52;22.10;57.90
12815;DHT22;6472;52.328;13.070;2023-05-31T08:58:21;22.30;61.40
12815;DHT22;6472;52.328;13.070;2023-05-31T09:00:50;22.30;58.20
12815;DHT22;6472;52.328;13.070;2023-05-31T09:03:18;22.30;61.40
12815;DHT22;6472;52.328;13.070;2023-05-31T09:05:55;22.40;59.70
12815;DHT22;6472;52.328;13.070;2023-05-31T09:08:23;22.20;59.30
12815;DHT22;6472;52.328;13.070;2023-05-31T09:10:51;22.30;60.60
12815;DHT22;6472;52.328;13.070;2023-05-31T09:13:20;22.50;59.60
12815;DHT22;6472;52.328;13.070;2023-05-31T09:15:49;22.40;58.80
12815;DHT22;6472;52.328;13.070;2023-05-31T09:18:21;22.60;58.30
12815;DHT22;6472;52.328;13.070;2023-05-31T09:20:51;22.50;57.10
12815;DHT22;6472;52.328;13.070;2023-05-31T09:23:24;22.60;57.50
12815;DHT22;6472;52.328;13.070;2023-05-31T09:25:53;22.70;57.40
12815;DHT22;6472;52.328;13.070;2023-05-31T09:28:21;22.80;56.80
12815;DHT22;6472;52.328;13.070;2023-05-31T09:31:01;23.00;57.30
12815;DHT22;6472;52.328;13.070;2023-05-31T09:33:41;23.10;55.20
12815;DHT22;6472;52.328;13.070;2023-05-31T09:36:10;22.90;56.20
12815;DHT22;6472;52.328;13.070;2023-05-31T09:38:40;22.90;58.90
12815;DHT22;6472;52.328;13.070;2023-05-31T09:41:13;22.60;56.90
12815;DHT22;6472;52.328;13.070;2023-05-31T09:43:43;22.70;61.40
12815;DHT22;6472;52.328;13.070;2023-05-31T09:46:12;22.70;58.10
12815;DHT22;6472;52.328;13.070;2023-05-31T09:48:41;22.80;57.40
12815;DHT22;6472;52.328;13.070;2023-05-31T09:51:10;22.70;56.80
12815;DHT22;6472;52.328;13.070;2023-05-31T09:53:42;22.70;56.30
12815;DHT22;6472;52.328;13.070;2023-05-31T09:56:11;22.50;55.80
12815;DHT22;6472;52.328;13.070;2023-05-31T09:58:40;22.30;55.30
12815;DHT22;6472;52.328;13.070;2023-05-31T10:01:09;22.30;57.30
12815;DHT22;6472;52.328;13.070;2023-05-31T10:03:38;22.20;56.60
12815;DHT22;6472;52.328;13.070;2023-05-31T10:06:07;22.30;57.70
12815;DHT22;6472;52.328;13.070;2023-05-31T10:08:37;22.50;57.30
12815;DHT22;6472;52.328;13.070;2023-05-31T10:11:06;22.50;55.80
12815;DHT22;6472;52.328;13.070;2023-05-31T10:13:42;22.30;55.30
12815;DHT22;6472;52.328;13.070;2023-05-31T10:16:11;22.30;58.20
12815;DHT22;6472;52.328;13.070;2023-05-31T10:18:44;22.40;55.00
12815;DHT22;6472;52.328;13.070;2023-05-31T10:21:16;22.50;55.30
12815;DHT22;6472;52.328;13.070;2023-05-31T10:23:55;22.30;56.50
12815;DHT22;6472;52.328;13.070;2023-05-31T10:26:34;22.30;55.60
12815;DHT22;6472;52.328;13.070;2023-05-31T10:29:09;22.20;54.70
12815;DHT22;6472;52.328;13.070;2023-05-31T10:31:43;22.10;54.90
12815;DHT22;6472;52.328;13.070;2023-05-31T10:34:18;22.10;55.50
12815;DHT22;6472;52.328;13.070;2023-05-31T10:36:46;22.30;56.30
12815;DHT22;6472;52.328;13.070;2023-05-31T10:39:21;22.40;56.40
12815;DHT22;6472;52.328;13.070;2023-05-31T10:41:59;22.30;55.60
12815;DHT22;6472;52.328;13.070;2023-05-31T10:44:36;22.30;56.20
12815;DHT22;6472;52.328;13.070;2023-05-31T10:47:05;22.50;56.50
12815;DHT22;6472;52.328;13.070;2023-05-31T10:49:36;22.70;55.10
12815;DHT22;6472;52.328;13.070;2023-05-31T10:52:08;22.60;53.10
12815;DHT22;6472;52.328;13.070;2023-05-31T10:54:38;22.60;52.20
12815;DHT22;6472;52.328;13.070;2023-05-31T10:57:08;22.60;51.50
12815;DHT22;6472;52.328;13.070;2023-05-31T10:59:41;22.70;50.80
12815;DHT22;6472;52.328;13.070;2023-05-31T11:02:10;22.80;52.00
12815;DHT22;6472;52.328;13.070;2023-05-31T11:04:40;22.90;52.10
12815;DHT22;6472;52.328;13.070;2023-05-31T11:07:14;22.80;52.70
12815;DHT22;6472;52.328;13.070;2023-05-31T11:09:57;22.80;52.50
12815;DHT22;6472;52.328;13.070;2023-05-31T11:12:35;22.80;52.40
12815;DHT22;6472;52.328;13.070;2023-05-31T11:15:04;22.80;52.70
12815;DHT22;6472;52.328;13.070;2023-05-31T11:17:39;22.80;52.60
12815;DHT22;6472;52.328;13.070;2023-05-31T11:20:15;22.90;54.30
12815;DHT22;6472;52.328;13.070;2023-05-31T11:22:44;23.00;54.70
12815;DHT22;6472;52.328;13.070;2023-05-31T11:25:18;23.00;54.50
12815;DHT22;6472;52.328;13.070;2023-05-31T11:28:05;23.00;53.20
12815;DHT22;6472;52.328;13.070;2023-05-31T11:30:37;23.00;54.90
12815;DHT22;6472;52.328;13.070;2023-05-31T11:33:14;23.10;54.80
12815;DHT22;6472;52.328;13.070;2023-05-31T11:35:43;23.10;53.40
12815;DHT22;6472;52.328;13.070;2023-05-31T11:38:11;23.20;53.60
12815;DHT22;6472;52.328;13.070;2023-05-31T11:40:42;23.20;52.80
12815;DHT22;6472;52.328;13.070;2023-05-31T11:43:14;23.20;52.00
12815;DHT22;6472;52.328;13.070;2023-05-31T11:45:46;23.00;52.10
12815;DHT22;6472;52.328;13.070;2023-05-31T11:48:30;23.00;50.70
12815;DHT22;6472;52.328;13.070;2023-05-31T11:51:03;23.00;52.10
12815;DHT22;6472;52.328;13.070;2023-05-31T11:53:31;23.00;53.50
12815;DHT22;6472;52.328;13.070;2023-05-31T11:55:59;23.00;51.60
12815;DHT22;6472;52.328;13.070;2023-05-31T11:58:28;22.90;51.70
12815;DHT22;6472;52.328;13.070;2023-05-31T12:00:58;23.00;52.90
12815;DHT22;6472;52.328;13.070;2023-05-31T12:03:29;23.10;51.60
12815;DHT22;6472;52.328;13.070;2023-05-31T12:05:58;23.20;52.00
12815;DHT22;6472;52.328;13.070;2023-05-31T12:08:27;23.20;49.90
12815;DHT22;6472;52.328;13.070;2023-05-31T12:11:03;23.50;50.40
12815;DHT22;6472;52.328;13.070;2023-05-31T12:13:34;23.70;52.00
12815;DHT22;6472;52.328;13.070;2023-05-31T12:16:05;23.90;51.90
12815;DHT22;6472;52.328;13.070;2023-05-31T12:18:33;23.90;51.70
12815;DHT22;6472;52.328;13.070;2023-05-31T12:21:07;24.00;50.50
12815;DHT22;6472;52.328;13.070;2023-05-31T12:23:51;24.10;50.20
12815;DHT22;6472;52.328;13.070;2023-05-31T12:26:19;24.20;51.40
12815;DHT22;6472;52.328;13.070;2023-05-31T12:28:50;24.30;50.10
12815;DHT22;6472;52.328;13.070;2023-05-31T12:31:21;24.30;50.40
12815;DHT22;6472;52.328;13.070;2023-05-31T12:34:06;24.20;50.30
12815;DHT22;6472;52.328;13.070;2023-05-31T12:36:40;24.30;50.70
12815;DHT22;6472;52.328;13.070;2023-05-31T12:39:10;24.30;48.80
12815;DHT22;6472;52.328;13.070;2023-05-31T12:41:41;24.20;48.90
12815;DHT22;6472;52.328;13.070;2023-05-31T12:44:12;24.30;49.20
12815;DHT22;6472;52.328;13.070;2023-05-31T12:46:41;24.40;49.60
12815;DHT22;6472;52.328;13.070;2023-05-31T12:49:13;24.60;50.60
12815;DHT22;6472;52.328;13.070;2023-05-31T12:51:42;24.80;48.20
12815;DHT22;6472;52.328;13.070;2023-05-31T12:54:11;24.70;48.70
12815;DHT22;6472;52.328;13.070;2023-05-31T12:56:40;24.90;48.10
12815;DHT22;6472;52.328;13.070;2023-05-31T12:59:08;25.30;49.70
12815;DHT22;6472;52.328;13.070;2023-05-31T13:01:38;25.40;46.90
12815;DHT22;6472;52.328;13.070;2023-05-31T13:04:09;25.40;47.40
12815;DHT22;6472;52.328;13.070;2023-05-31T13:06:37;25.40;46.30
12815;DHT22;6472;52.328;13.070;2023-05-31T13:09:05;25.50;47.00
12815;DHT22;6472;52.328;13.070;2023-05-31T13:11:34;25.50;45.50
12815;DHT22;6472;52.328;13.070;2023-05-31T13:14:03;25.60;46.10
12815;DHT22;6472;52.328;13.070;2023-05-31T13:16:31;25.80;45.50
12815;DHT22;6472;52.328;13.070;2023-05-31T13:19:01;25.80;44.90
12815;DHT22;6472;52.328;13.070;2023-05-31T13:21:30;25.90;44.10
12815;DHT22;6472;52.328;13.070;2023-05-31T13:23:59;25.80;44.60
12815;DHT22;6472;52.328;13.070;2023-05-31T13:26:27;25.90;47.40
12815;DHT22;6472;52.328;13.070;2023-05-31T13:28:56;26.00;48.80
12815;DHT22;6472;52.328;13.070;2023-05-31T13:31:26;26.00;45.60
12815;DHT22;6472;52.328;13.070;2023-05-31T13:33:54;26.00;46.80
12815;DHT22;6472;52.328;13.070;2023-05-31T13:36:24;26.20;46.90
12815;DHT22;6472;52.328;13.070;2023-05-31T13:38:52;26.00;45.30
12815;DHT22;6472;52.328;13.070;2023-05-31T13:41:21;25.90;47.00
12815;DHT22;6472;52.328;13.070;2023-05-31T13:43:50;25.80;45.10
12815;DHT22;6472;52.328;13.070;2023-05-31T13:46:18;25.70;44.80
12815;DHT22;6472;52.328;13.070;2023-05-31T13:48:46;25.40;45.30
12815;DHT22;6472;52.328;13.070;2023-05-31T13:51:15;25.30;46.60
12815;DHT22;6472;52.328;13.070;2023-05-31T13:53:45;25.40;47.20
12815;DHT22;6472;52.328;13.070;2023-05-31T13:56:13;25.60;45.90
12815;DHT22;6472;52.328;13.070;2023-05-31T13:58:40;25.90;46.50
12815;DHT22;6472;52.328;13.070;2023-05-31T14:01:09;26.20;45.00
12815;DHT22;6472;52.328;13.070;2023-05-31T14:03:37;26.00;45.70
12815;DHT22;6472;52.328;13.070;2023-05-31T14:06:07;26.00;45.10
12815;DHT22;6472;52.328;13.070;2023-05-31T14:08:35;25.50;44.30
12815;DHT22;6472;52.328;13.070;2023-05-31T14:11:05;25.50;45.90
12815;DHT22;6472;52.328;13.070;2023-05-31T14:13:33;25.50;44.90
12815;DHT22;6472;52.328;13.070;2023-05-31T14:16:01;25.50;45.70
12815;DHT22;6472;52.328;13.070;2023-05-31T14:18:29;25.40;46.70
12815;DHT22;6472;52.328;13.070;2023-05-31T14:20:57;25.40;45.30
12815;DHT22;6472;52.328;13.070;2023-05-31T14:23:26;25.20;44.90
12815;DHT22;6472;52.328;13.070;2023-05-31T14:25:54;25.20;45.40
12815;DHT22;6472;52.328;13.070;2023-05-31T14:28:23;25.20;45.90
12815;DHT22;6472;52.328;13.070;2023-05-31T14:30:51;25.20;46.00
12815;DHT22;6472;52.328;13.070;2023-05-31T14:33:19;25.30;45.00
12815;DHT22;6472;52.328;13.070;2023-05-31T14:35:49;25.20;44.10
12815;DHT22;6472;52.328;13.070;2023-05-31T14:38:17;25.10;45.00
12815;DHT22;6472;52.328;13.070;2023-05-31T14:41:01;25.10;43.90
12815;DHT22;6472;52.328;13.070;2023-05-31T14:43:31;25.20;45.00
12815;DHT22;6472;52.328;13.070;2023-05-31T14:45:59;25.20;44.60
12815;DHT22;6472;52.328;13.070;2023-05-31T14:48:27;25.30;44.20
12815;DHT22;6472;52.328;13.070;2023-05-31T14:50:55;25.40;44.20
12815;DHT22;6472;52.328;13.070;2023-05-31T14:53:24;25.30;44.00
12815;DHT22;6472;52.328;13.070;2023-05-31T14:55:52;25.40;43.80
12815;DHT22;6472;52.328;13.070;2023-05-31T14:58:36;25.40;42.20
12815;DHT22;6472;52.328;13.070;2023-05-31T15:01:04;25.40;43.00
12815;DHT22;6472;52.328;13.070;2023-05-31T15:03:32;25.30;44.00
12815;DHT22;6472;52.328;13.070;2023-05-31T15:06:00;25.30;42.60
12815;DHT22;6472;52.328;13.070;2023-05-31T15:08:28;25.10;44.00
12815;DHT22;6472;52.328;13.070;2023-05-31T15:11:00;25.20;45.50
12815;DHT22;6472;52.328;13.070;2023-05-31T15:13:29;25.30;42.60
12815;DHT22;6472;52.328;13.070;2023-05-31T15:15:58;25.20;41.90
12815;DHT22;6472;52.328;13.070;2023-05-31T15:18:28;25.30;41.30
12815;DHT22;6472;52.328;13.070;2023-05-31T15:20:56;25.40;41.80
12815;DHT22;6472;52.328;13.070;2023-05-31T15:23:24;25.30;42.00
12815;DHT22;6472;52.328;13.070;2023-05-31T15:25:52;25.30;42.00
12815;DHT22;6472;52.328;13.070;2023-05-31T15:28:21;25.20;41.30
12815;DHT22;6472;52.328;13.070;2023-05-31T15:30:49;25.20;40.90
12815;DHT22;6472;52.328;13.070;2023-05-31T15:33:19;25.20;40.00
12815;DHT22;6472;52.328;13.070;2023-05-31T15:35:47;25.10;38.70
12815;DHT22;6472;52.328;13.070;2023-05-31T15:38:15;25.10;40.60
12815;DHT22;6472;52.328;13.070;2023-05-31T15:40:43;25.20;39.00
12815;DHT22;6472;52.328;13.070;2023-05-31T15:43:11;25.30;38.60
12815;DHT22;6472;52.328;13.070;2023-05-31T15:45:39;25.10;38.70
12815;DHT22;6472;52.328;13.070;2023-05-31T15:48:07;25.10;40.10
12815;DHT22;6472;52.328;13.070;2023-05-31T15:50:37;25.20;41.80